sensor_id;sensor_type;location;lat;lon;timestamp;P1;durP1;ratioP1;P2;durP2;ratioP2
51312;SDS011;37397;53.226;10.400;2023-04-27T00:01:51;9.52;;;3.30;;
51312;SDS011;37397;53.226;10.400;2023-04-27T00:04:17;9.10;;;3.38;;
51312;SDS011;37397;53.226;10.400;2023-04-27T00:06:46;8.80;;;3.42;;
51312;SDS011;37397;53.226;10.400;2023-04-27T00:09:12;8.30;;;3.00;;
51312;SDS011;37397;53.226;10.400;2023-04-27T00:11:39;8.38;;;3.17;;
51312;SDS011;37397;53.226;10.400;2023-04-27T00:14:05;10.00;;;3.40;;
51312;SDS011;37397;53.226;10.400;2023-04-27T00:16:32;9.10;;;3.03;;
51312;SDS011;37397;53.226;10.400;2023-04-27T00:18:59;6.57;;;2.97;;
51312;SDS011;37397;53.226;10.400;2023-04-27T00:21:25;6.60;;;3.00;;
51312;SDS011;37397;53.226;10.400;2023-04-27T00:23:53;8.07;;;3.28;;
51312;SDS011;37397;53.226;10.400;2023-04-27T00:26:19;9.05;;;2.80;;
51312;SDS011;37397;53.226;10.400;2023-04-27T00:28:49;9.48;;;3.22;;
51312;SDS011;37397;53.226;10.400;2023-04-27T00:31:15;6.95;;;3.10;;
51312;SDS011;37397;53.226;10.400;2023-04-27T00:33:42;5.45;;;3.20;;
51312;SDS011;37397;53.226;10.400;2023-04-27T00:36:08;8.43;;;3.33;;
51312;SDS011;37397;53.226;10.400;2023-04-27T00:38:35;9.70;;;3.35;;
51312;SDS011;37397;53.226;10.400;2023-04-27T00:41:04;8.18;;;3.45;;
51312;SDS011;37397;53.226;10.400;2023-04-27T00:43:32;9.57;;;3.28;;
51312;SDS011;37397;53.226;10.400;2023-04-27T00:46:07;11.23;;;3.22;;
51312;SDS011;37397;53.226;10.400;2023-04-27T00:48:34;8.55;;;3.58;;
51312;SDS011;37397;53.226;10.400;2023-04-27T00:51:01;10.73;;;3.72;;
51312;SDS011;37397;53.226;10.400;2023-04-27T00:53:27;9.25;;;3.72;;
51312;SDS011;37397;53.226;10.400;2023-04-27T00:55:54;8.90;;;3.28;;
51312;SDS011;37397;53.226;10.400;2023-04-27T00:58:23;10.30;;;3.42;;
51312;SDS011;37397;53.226;10.400;2023-04-27T01:00:50;7.50;;;3.35;;
51312;SDS011;37397;53.226;10.400;2023-04-27T01:03:17;7.18;;;2.85;;
51312;SDS011;37397;53.226;10.400;2023-04-27T01:05:44;6.38;;;3.00;;
51312;SDS011;37397;53.226;10.400;2023-04-27T01:08:12;11.32;;;3.33;;
51312;SDS011;37397;53.226;10.400;2023-04-27T01:10:39;9.52;;;3.40;;
51312;SDS011;37397;53.226;10.400;2023-04-27T01:13:08;5.05;;;2.70;;
51312;SDS011;37397;53.226;10.400;2023-04-27T01:15:36;5.75;;;2.70;;
51312;SDS011;37397;53.226;10.400;2023-04-27T01:18:07;8.00;;;3.00;;
51312;SDS011;37397;53.226;10.400;2023-04-27T01:20:34;8.63;;;3.50;;
51312;SDS011;37397;53.226;10.400;2023-04-27T01:23:01;11.88;;;4.03;;
51312;SDS011;37397;53.226;10.400;2023-04-27T01:25:28;11.38;;;3.50;;
51312;SDS011;37397;53.226;10.400;2023-04-27T01:27:55;8.00;;;3.50;;
51312;SDS011;37397;53.226;10.400;2023-04-27T01:30:21;9.93;;;4.85;;
51312;SDS011;37397;53.226;10.400;2023-04-27T01:32:48;7.70;;;3.33;;
51312;SDS011;37397;53.226;10.400;2023-04-27T01:35:17;11.30;;;3.45;;
51312;SDS011;37397;53.226;10.400;2023-04-27T01:37:44;10.23;;;3.58;;
51312;SDS011;37397;53.226;10.400;2023-04-27T01:40:11;9.48;;;3.70;;
51312;SDS011;37397;53.226;10.400;2023-04-27T01:42:38;6.80;;;3.20;;
51312;SDS011;37397;53.226;10.400;2023-04-27T01:45:07;6.15;;;3.40;;
51312;SDS011;37397;53.226;10.400;2023-04-27T01:47:34;8.15;;;3.40;;
51312;SDS011;37397;53.226;10.400;2023-04-27T01:50:01;7.47;;;3.10;;
51312;SDS011;37397;53.226;10.400;2023-04-27T01:52:27;8.10;;;3.60;;
51312;SDS011;37397;53.226;10.400;2023-04-27T01:54:54;9.52;;;3.47;;
51312;SDS011;37397;53.226;10.400;2023-04-27T01:57:21;8.07;;;3.45;;
51312;SDS011;37397;53.226;10.400;2023-04-27T01:59:47;9.52;;;3.75;;
51312;SDS011;37397;53.226;10.400;2023-04-27T02:02:14;6.25;;;3.03;;
51312;SDS011;37397;53.226;10.400;2023-04-27T02:04:40;7.20;;;3.53;;
51312;SDS011;37397;53.226;10.400;2023-04-27T02:07:09;8.65;;;3.28;;
51312;SDS011;37397;53.226;10.400;2023-04-27T02:09:36;6.47;;;3.30;;
51312;SDS011;37397;53.226;10.400;2023-04-27T02:12:02;7.68;;;3.80;;
51312;SDS011;37397;53.226;10.400;2023-04-27T02:14:29;8.90;;;3.70;;
51312;SDS011;37397;53.226;10.400;2023-04-27T02:16:55;8.18;;;3.63;;
51312;SDS011;37397;53.226;10.400;2023-04-27T02:19:22;6.70;;;3.35;;
51312;SDS011;37397;53.226;10.400;2023-04-27T02:21:48;8.20;;;3.45;;
51312;SDS011;37397;53.226;10.400;2023-04-27T02:24:15;8.25;;;3.60;;
51312;SDS011;37397;53.226;10.400;2023-04-27T02:26:43;8.93;;;4.00;;
51312;SDS011;37397;53.226;10.400;2023-04-27T02:29:10;12.27;;;4.22;;
51312;SDS011;37397;53.226;10.400;2023-04-27T02:31:37;9.55;;;3.58;;
51312;SDS011;37397;53.226;10.400;2023-04-27T02:34:03;10.50;;;4.00;;
51312;SDS011;37397;53.226;10.400;2023-04-27T02:36:30;7.78;;;3.78;;
51312;SDS011;37397;53.226;10.400;2023-04-27T02:38:57;10.15;;;3.63;;
51312;SDS011;37397;53.226;10.400;2023-04-27T02:41:23;10.25;;;4.32;;
51312;SDS011;37397;53.226;10.400;2023-04-27T02:43:52;8.10;;;3.70;;
51312;SDS011;37397;53.226;10.400;2023-04-27T02:46:19;9.32;;;4.22;;
51312;SDS011;37397;53.226;10.400;2023-04-27T02:48:45;8.00;;;3.80;;
51312;SDS011;37397;53.226;10.400;2023-04-27T02:51:12;7.40;;;3.78;;
51312;SDS011;37397;53.226;10.400;2023-04-27T02:53:38;9.30;;;4.05;;
51312;SDS011;37397;53.226;10.400;2023-04-27T02:56:05;11.73;;;4.47;;
51312;SDS011;37397;53.226;10.400;2023-04-27T02:58:31;8.05;;;4.15;;
51312;SDS011;37397;53.226;10.400;2023-04-27T03:00:58;10.48;;;4.13;;
51312;SDS011;37397;53.226;10.400;2023-04-27T03:03:24;10.80;;;4.03;;
51312;SDS011;37397;53.226;10.400;2023-04-27T03:05:51;8.20;;;4.10;;
51312;SDS011;37397;53.226;10.400;2023-04-27T03:08:18;10.63;;;4.45;;
51312;SDS011;37397;53.226;10.400;2023-04-27T03:10:44;9.13;;;3.88;;
51312;SDS011;37397;53.226;10.400;2023-04-27T03:13:10;10.38;;;4.43;;
51312;SDS011;37397;53.226;10.400;2023-04-27T03:15:37;11.75;;;4.05;;
51312;SDS011;37397;53.226;10.400;2023-04-27T03:18:03;10.20;;;4.38;;
51312;SDS011;37397;53.226;10.400;2023-04-27T03:20:32;9.35;;;4.30;;
51312;SDS011;37397;53.226;10.400;2023-04-27T03:22:58;8.45;;;3.92;;
51312;SDS011;37397;53.226;10.400;2023-04-27T03:25:25;10.73;;;4.57;;
51312;SDS011;37397;53.226;10.400;2023-04-27T03:27:51;8.63;;;4.07;;
51312;SDS011;37397;53.226;10.400;2023-04-27T03:30:21;10.93;;;4.18;;
51312;SDS011;37397;53.226;10.400;2023-04-27T03:32:47;9.13;;;4.20;;
51312;SDS011;37397;53.226;10.400;2023-04-27T03:35:14;9.18;;;4.03;;
51312;SDS011;37397;53.226;10.400;2023-04-27T03:37:41;8.43;;;4.28;;
51312;SDS011;37397;53.226;10.400;2023-04-27T03:40:07;8.55;;;3.72;;
51312;SDS011;37397;53.226;10.400;2023-04-27T03:42:35;10.43;;;4.10;;
51312;SDS011;37397;53.226;10.400;2023-04-27T03:45:01;8.23;;;4.20;;
51312;SDS011;37397;53.226;10.400;2023-04-27T03:47:28;10.30;;;4.30;;
51312;SDS011;37397;53.226;10.400;2023-04-27T03:49:55;7.72;;;3.90;;
51312;SDS011;37397;53.226;10.400;2023-04-27T03:52:22;11.23;;;4.10;;
51312;SDS011;37397;53.226;10.400;2023-04-27T03:54:48;8.77;;;3.85;;
51312;SDS011;37397;53.226;10.400;2023-04-27T03:57:16;11.35;;;4.20;;
51312;SDS011;37397;53.226;10.400;2023-04-27T03:59:43;8.75;;;4.28;;
51312;SDS011;37397;53.226;10.400;2023-04-27T04:02:09;9.82;;;4.13;;
51312;SDS011;37397;53.226;10.400;2023-04-27T04:04:37;7.40;;;4.20;;
51312;SDS011;37397;53.226;10.400;2023-04-27T04:07:03;11.63;;;4.60;;
51312;SDS011;37397;53.226;10.400;2023-04-27T04:09:31;9.93;;;4.40;;
51312;SDS011;37397;53.226;10.400;2023-04-27T04:11:58;7.03;;;4.20;;
51312;SDS011;37397;53.226;10.400;2023-04-27T04:14:24;10.13;;;4.43;;
51312;SDS011;37397;53.226;10.400;2023-04-27T04:16:53;11.15;;;5.25;;
51312;SDS011;37397;53.226;10.400;2023-04-27T04:19:19;11.82;;;4.70;;
51312;SDS011;37397;53.226;10.400;2023-04-27T04:21:47;11.43;;;4.28;;
51312;SDS011;37397;53.226;10.400;2023-04-27T04:24:14;10.57;;;3.88;;
51312;SDS011;37397;53.226;10.400;2023-04-27T04:26:41;7.28;;;3.90;;
51312;SDS011;37397;53.226;10.400;2023-04-27T04:29:08;9.30;;;4.00;;
51312;SDS011;37397;53.226;10.400;2023-04-27T04:31:36;7.38;;;4.00;;
51312;SDS011;37397;53.226;10.400;2023-04-27T04:34:03;8.18;;;4.30;;
51312;SDS011;37397;53.226;10.400;2023-04-27T04:36:30;8.40;;;3.90;;
51312;SDS011;37397;53.226;10.400;2023-04-27T04:38:57;10.23;;;4.40;;
51312;SDS011;37397;53.226;10.400;2023-04-27T04:41:24;8.00;;;4.13;;
51312;SDS011;37397;53.226;10.400;2023-04-27T04:43:51;8.70;;;3.90;;
51312;SDS011;37397;53.226;10.400;2023-04-27T04:46:17;7.05;;;4.28;;
51312;SDS011;37397;53.226;10.400;2023-04-27T04:48:45;9.60;;;4.07;;
51312;SDS011;37397;53.226;10.400;2023-04-27T04:51:12;8.27;;;4.25;;
51312;SDS011;37397;53.226;10.400;2023-04-27T04:53:38;10.15;;;4.30;;
51312;SDS011;37397;53.226;10.400;2023-04-27T04:56:08;10.68;;;4.15;;
51312;SDS011;37397;53.226;10.400;2023-04-27T04:58:36;8.95;;;4.57;;
51312;SDS011;37397;53.226;10.400;2023-04-27T05:01:03;9.68;;;4.28;;
51312;SDS011;37397;53.226;10.400;2023-04-27T05:03:29;8.63;;;4.25;;
51312;SDS011;37397;53.226;10.400;2023-04-27T05:05:56;8.82;;;4.10;;
51312;SDS011;37397;53.226;10.400;2023-04-27T05:08:23;11.32;;;4.30;;
51312;SDS011;37397;53.226;10.400;2023-04-27T05:10:50;8.43;;;4.32;;
51312;SDS011;37397;53.226;10.400;2023-04-27T05:13:17;9.13;;;4.38;;
51312;SDS011;37397;53.226;10.400;2023-04-27T05:15:44;8.43;;;4.78;;
51312;SDS011;37397;53.226;10.400;2023-04-27T05:18:11;9.18;;;4.10;;
51312;SDS011;37397;53.226;10.400;2023-04-27T05:20:38;8.50;;;4.22;;
51312;SDS011;37397;53.226;10.400;2023-04-27T05:23:04;9.02;;;4.35;;
51312;SDS011;37397;53.226;10.400;2023-04-27T05:25:31;9.13;;;4.50;;
51312;SDS011;37397;53.226;10.400;2023-04-27T05:27:58;10.98;;;4.45;;
51312;SDS011;37397;53.226;10.400;2023-04-27T05:30:24;9.43;;;4.68;;
51312;SDS011;37397;53.226;10.400;2023-04-27T05:32:51;10.05;;;4.50;;
51312;SDS011;37397;53.226;10.400;2023-04-27T05:35:17;11.90;;;4.82;;
51312;SDS011;37397;53.226;10.400;2023-04-27T05:37:44;10.65;;;4.85;;
51312;SDS011;37397;53.226;10.400;2023-04-27T05:40:10;7.18;;;3.95;;
51312;SDS011;37397;53.226;10.400;2023-04-27T05:42:37;11.90;;;4.47;;
51312;SDS011;37397;53.226;10.400;2023-04-27T05:45:04;9.93;;;4.28;;
51312;SDS011;37397;53.226;10.400;2023-04-27T05:47:34;10.30;;;4.63;;
51312;SDS011;37397;53.226;10.400;2023-04-27T05:50:01;9.65;;;4.72;;
51312;SDS011;37397;53.226;10.400;2023-04-27T05:52:28;9.90;;;4.65;;
51312;SDS011;37397;53.226;10.400;2023-04-27T05:54:56;8.27;;;4.70;;
51312;SDS011;37397;53.226;10.400;2023-04-27T05:57:23;8.80;;;4.03;;
51312;SDS011;37397;53.226;10.400;2023-04-27T05:59:51;7.43;;;4.13;;
51312;SDS011;37397;53.226;10.400;2023-04-27T06:02:18;8.40;;;4.07;;
51312;SDS011;37397;53.226;10.400;2023-04-27T06:04:45;9.63;;;4.85;;
51312;SDS011;37397;53.226;10.400;2023-04-27T06:07:12;11.15;;;4.22;;
51312;SDS011;37397;53.226;10.400;2023-04-27T06:09:40;8.30;;;4.47;;
51312;SDS011;37397;53.226;10.400;2023-04-27T06:12:07;10.43;;;4.65;;
51312;SDS011;37397;53.226;10.400;2023-04-27T06:14:35;7.15;;;4.15;;
51312;SDS011;37397;53.226;10.400;2023-04-27T06:17:03;9.10;;;4.55;;
51312;SDS011;37397;53.226;10.400;2023-04-27T06:19:29;10.70;;;4.50;;
51312;SDS011;37397;53.226;10.400;2023-04-27T06:21:56;8.45;;;4.32;;
51312;SDS011;37397;53.226;10.400;2023-04-27T06:24:23;8.55;;;4.10;;
51312;SDS011;37397;53.226;10.400;2023-04-27T06:26:49;9.95;;;4.28;;
51312;SDS011;37397;53.226;10.400;2023-04-27T06:29:16;9.35;;;4.25;;
51312;SDS011;37397;53.226;10.400;2023-04-27T06:31:43;11.02;;;4.70;;
51312;SDS011;37397;53.226;10.400;2023-04-27T06:34:09;8.35;;;4.35;;
51312;SDS011;37397;53.226;10.400;2023-04-27T06:36:36;7.65;;;3.50;;
51312;SDS011;37397;53.226;10.400;2023-04-27T06:39:02;8.55;;;4.00;;
51312;SDS011;37397;53.226;10.400;2023-04-27T06:41:29;9.63;;;3.80;;
51312;SDS011;37397;53.226;10.400;2023-04-27T06:43:55;9.45;;;4.30;;
51312;SDS011;37397;53.226;10.400;2023-04-27T06:46:24;7.57;;;3.47;;
51312;SDS011;37397;53.226;10.400;2023-04-27T06:48:51;11.68;;;3.60;;
51312;SDS011;37397;53.226;10.400;2023-04-27T06:51:18;7.50;;;3.42;;
51312;SDS011;37397;53.226;10.400;2023-04-27T06:53:44;13.50;;;3.85;;
51312;SDS011;37397;53.226;10.400;2023-04-27T06:56:11;8.82;;;4.00;;
51312;SDS011;37397;53.226;10.400;2023-04-27T06:58:37;11.93;;;3.90;;
51312;SDS011;37397;53.226;10.400;2023-04-27T07:01:03;11.95;;;4.10;;
51312;SDS011;37397;53.226;10.400;2023-04-27T07:03:33;11.10;;;3.25;;
51312;SDS011;37397;53.226;10.400;2023-04-27T07:06:00;9.02;;;3.97;;
51312;SDS011;37397;53.226;10.400;2023-04-27T07:08:26;11.05;;;4.00;;
51312;SDS011;37397;53.226;10.400;2023-04-27T07:10:53;12.52;;;3.50;;
51312;SDS011;37397;53.226;10.400;2023-04-27T07:13:21;9.95;;;4.15;;
51312;SDS011;37397;53.226;10.400;2023-04-27T07:15:47;9.52;;;3.78;;
51312;SDS011;37397;53.226;10.400;2023-04-27T07:18:20;8.05;;;3.65;;
51312;SDS011;37397;53.226;10.400;2023-04-27T07:20:46;8.15;;;3.63;;
51312;SDS011;37397;53.226;10.400;2023-04-27T07:23:12;11.00;;;3.22;;
51312;SDS011;37397;53.226;10.400;2023-04-27T07:25:39;11.10;;;3.90;;
51312;SDS011;37397;53.226;10.400;2023-04-27T07:28:06;8.68;;;3.45;;
51312;SDS011;37397;53.226;10.400;2023-04-27T07:30:32;8.38;;;3.70;;
51312;SDS011;37397;53.226;10.400;2023-04-27T07:33:01;11.98;;;3.80;;
51312;SDS011;37397;53.226;10.400;2023-04-27T07:35:28;9.13;;;3.25;;
51312;SDS011;37397;53.226;10.400;2023-04-27T07:37:54;11.63;;;3.90;;
51312;SDS011;37397;53.226;10.400;2023-04-27T07:40:21;9.90;;;3.50;;
51312;SDS011;37397;53.226;10.400;2023-04-27T07:42:49;10.10;;;3.38;;
51312;SDS011;37397;53.226;10.400;2023-04-27T07:45:16;8.48;;;3.40;;
51312;SDS011;37397;53.226;10.400;2023-04-27T07:47:43;8.93;;;3.35;;
51312;SDS011;37397;53.226;10.400;2023-04-27T07:50:09;10.82;;;3.38;;
51312;SDS011;37397;53.226;10.400;2023-04-27T07:52:36;6.65;;;3.08;;
51312;SDS011;37397;53.226;10.400;2023-04-27T07:55:02;12.20;;;3.53;;
51312;SDS011;37397;53.226;10.400;2023-04-27T07:57:29;8.65;;;2.90;;
51312;SDS011;37397;53.226;10.400;2023-04-27T07:59:56;11.93;;;3.65;;
51312;SDS011;37397;53.226;10.400;2023-04-27T08:02:23;8.45;;;3.00;;
51312;SDS011;37397;53.226;10.400;2023-04-27T08:04:52;9.50;;;3.22;;
51312;SDS011;37397;53.226;10.400;2023-04-27T08:07:19;7.53;;;2.85;;
51312;SDS011;37397;53.226;10.400;2023-04-27T08:09:45;10.38;;;3.22;;
51312;SDS011;37397;53.226;10.400;2023-04-27T08:12:12;11.90;;;3.10;;
51312;SDS011;37397;53.226;10.400;2023-04-27T08:14:39;5.03;;;2.92;;
51312;SDS011;37397;53.226;10.400;2023-04-27T08:17:05;8.85;;;3.30;;
51312;SDS011;37397;53.226;10.400;2023-04-27T08:19:32;11.02;;;3.40;;
51312;SDS011;37397;53.226;10.400;2023-04-27T08:21:58;8.18;;;3.20;;
51312;SDS011;37397;53.226;10.400;2023-04-27T08:24:25;10.40;;;3.55;;
51312;SDS011;37397;53.226;10.400;2023-04-27T08:26:52;9.20;;;3.42;;
51312;SDS011;37397;53.226;10.400;2023-04-27T08:29:18;7.32;;;2.60;;
51312;SDS011;37397;53.226;10.400;2023-04-27T08:31:54;5.53;;;2.63;;
51312;SDS011;37397;53.226;10.400;2023-04-27T08:34:24;6.13;;;2.70;;
51312;SDS011;37397;53.226;10.400;2023-04-27T08:36:50;7.32;;;2.40;;
51312;SDS011;37397;53.226;10.400;2023-04-27T08:39:17;5.50;;;2.50;;
51312;SDS011;37397;53.226;10.400;2023-04-27T08:41:44;5.25;;;2.50;;
51312;SDS011;37397;53.226;10.400;2023-04-27T08:44:11;9.07;;;3.10;;
51312;SDS011;37397;53.226;10.400;2023-04-27T08:46:38;9.05;;;2.60;;
51312;SDS011;37397;53.226;10.400;2023-04-27T08:49:04;7.00;;;2.88;;
51312;SDS011;37397;53.226;10.400;2023-04-27T08:51:33;8.80;;;3.28;;
51312;SDS011;37397;53.226;10.400;2023-04-27T08:53:59;5.85;;;2.58;;
51312;SDS011;37397;53.226;10.400;2023-04-27T08:56:27;9.60;;;3.05;;
51312;SDS011;37397;53.226;10.400;2023-04-27T08:58:54;11.32;;;3.17;;
51312;SDS011;37397;53.226;10.400;2023-04-27T09:01:22;8.00;;;3.10;;
51312;SDS011;37397;53.226;10.400;2023-04-27T09:03:57;6.25;;;2.55;;
51312;SDS011;37397;53.226;10.400;2023-04-27T09:06:29;8.25;;;2.80;;
51312;SDS011;37397;53.226;10.400;2023-04-27T09:08:57;9.65;;;2.67;;
51312;SDS011;37397;53.226;10.400;2023-04-27T09:11:34;7.20;;;2.58;;
51312;SDS011;37397;53.226;10.400;2023-04-27T09:14:03;5.72;;;2.88;;
51312;SDS011;37397;53.226;10.400;2023-04-27T09:16:44;6.03;;;2.70;;
51312;SDS011;37397;53.226;10.400;2023-04-27T09:19:11;8.10;;;2.88;;
51312;SDS011;37397;53.226;10.400;2023-04-27T09:21:49;8.90;;;2.70;;
51312;SDS011;37397;53.226;10.400;2023-04-27T09:24:16;6.05;;;2.85;;
51312;SDS011;37397;53.226;10.400;2023-04-27T09:26:48;6.65;;;2.80;;
51312;SDS011;37397;53.226;10.400;2023-04-27T09:29:15;5.38;;;2.75;;
51312;SDS011;37397;53.226;10.400;2023-04-27T09:31:41;4.90;;;2.78;;
51312;SDS011;37397;53.226;10.400;2023-04-27T09:34:08;7.03;;;3.17;;
51312;SDS011;37397;53.226;10.400;2023-04-27T09:36:34;7.18;;;2.80;;
51312;SDS011;37397;53.226;10.400;2023-04-27T09:39:02;8.85;;;3.17;;
51312;SDS011;37397;53.226;10.400;2023-04-27T09:41:31;7.70;;;2.80;;
51312;SDS011;37397;53.226;10.400;2023-04-27T09:43:58;7.40;;;3.08;;
51312;SDS011;37397;53.226;10.400;2023-04-27T09:46:25;8.30;;;2.72;;
51312;SDS011;37397;53.226;10.400;2023-04-27T09:48:55;7.07;;;3.15;;
51312;SDS011;37397;53.226;10.400;2023-04-27T09:51:22;8.10;;;3.10;;
51312;SDS011;37397;53.226;10.400;2023-04-27T09:53:50;4.78;;;2.55;;
51312;SDS011;37397;53.226;10.400;2023-04-27T09:59:12;8.93;;;2.72;;
51312;SDS011;37397;53.226;10.400;2023-04-27T10:07:21;5.63;;;2.72;;
51312;SDS011;37397;53.226;10.400;2023-04-27T10:09:48;4.93;;;2.80;;
51312;SDS011;37397;53.226;10.400;2023-04-27T10:12:20;6.85;;;3.00;;
51312;SDS011;37397;53.226;10.400;2023-04-27T10:14:55;4.70;;;2.67;;
51312;SDS011;37397;53.226;10.400;2023-04-27T10:17:30;7.45;;;3.08;;
51312;SDS011;37397;53.226;10.400;2023-04-27T10:19:59;6.68;;;3.03;;
51312;SDS011;37397;53.226;10.400;2023-04-27T10:25:36;5.43;;;2.85;;
51312;SDS011;37397;53.226;10.400;2023-04-27T10:28:04;6.60;;;3.42;;
51312;SDS011;37397;53.226;10.400;2023-04-27T10:30:34;5.93;;;2.75;;
51312;SDS011;37397;53.226;10.400;2023-04-27T10:33:07;7.43;;;2.97;;
51312;SDS011;37397;53.226;10.400;2023-04-27T10:35:35;6.43;;;2.80;;
51312;SDS011;37397;53.226;10.400;2023-04-27T10:38:07;5.80;;;2.70;;
51312;SDS011;37397;53.226;10.400;2023-04-27T10:40:38;5.85;;;2.83;;
51312;SDS011;37397;53.226;10.400;2023-04-27T10:43:11;5.28;;;2.72;;
51312;SDS011;37397;53.226;10.400;2023-04-27T10:45:39;5.40;;;2.70;;
51312;SDS011;37397;53.226;10.400;2023-04-27T10:48:07;9.45;;;3.10;;
51312;SDS011;37397;53.226;10.400;2023-04-27T10:50:38;8.52;;;3.25;;
51312;SDS011;37397;53.226;10.400;2023-04-27T10:53:06;6.03;;;2.80;;
51312;SDS011;37397;53.226;10.400;2023-04-27T10:55:33;5.75;;;2.65;;
51312;SDS011;37397;53.226;10.400;2023-04-27T10:58:00;7.82;;;2.90;;
51312;SDS011;37397;53.226;10.400;2023-04-27T11:00:29;6.28;;;3.10;;
51312;SDS011;37397;53.226;10.400;2023-04-27T11:03:08;5.85;;;2.85;;
51312;SDS011;37397;53.226;10.400;2023-04-27T11:05:37;6.53;;;3.00;;
51312;SDS011;37397;53.226;10.400;2023-04-27T11:08:05;6.68;;;3.03;;
51312;SDS011;37397;53.226;10.400;2023-04-27T11:10:33;6.25;;;2.80;;
51312;SDS011;37397;53.226;10.400;2023-04-27T11:13:06;4.05;;;2.42;;
51312;SDS011;37397;53.226;10.400;2023-04-27T11:15:41;5.32;;;2.75;;
51312;SDS011;37397;53.226;10.400;2023-04-27T11:18:08;7.25;;;2.83;;
51312;SDS011;37397;53.226;10.400;2023-04-27T11:20:36;5.72;;;2.92;;
51312;SDS011;37397;53.226;10.400;2023-04-27T11:23:02;6.10;;;2.83;;
51312;SDS011;37397;53.226;10.400;2023-04-27T11:25:29;4.95;;;2.50;;
51312;SDS011;37397;53.226;10.400;2023-04-27T11:27:55;6.60;;;2.97;;
51312;SDS011;37397;53.226;10.400;2023-04-27T11:30:22;6.13;;;2.80;;
51312;SDS011;37397;53.226;10.400;2023-04-27T11:32:49;4.82;;;2.97;;
51312;SDS011;37397;53.226;10.400;2023-04-27T11:35:16;5.78;;;2.80;;
51312;SDS011;37397;53.226;10.400;2023-04-27T11:37:43;6.70;;;2.63;;
51312;SDS011;37397;53.226;10.400;2023-04-27T11:40:12;6.68;;;2.55;;
51312;SDS011;37397;53.226;10.400;2023-04-27T11:42:40;6.60;;;2.90;;
51312;SDS011;37397;53.226;10.400;2023-04-27T11:45:09;7.85;;;2.90;;
51312;SDS011;37397;53.226;10.400;2023-04-27T11:47:37;5.15;;;2.78;;
51312;SDS011;37397;53.226;10.400;2023-04-27T11:50:06;4.47;;;2.80;;
51312;SDS011;37397;53.226;10.400;2023-04-27T11:52:34;4.47;;;2.70;;
51312;SDS011;37397;53.226;10.400;2023-04-27T11:55:02;5.55;;;3.10;;
51312;SDS011;37397;53.226;10.400;2023-04-27T11:57:31;6.72;;;2.90;;
51312;SDS011;37397;53.226;10.400;2023-04-27T11:59:59;7.10;;;2.67;;
51312;SDS011;37397;53.226;10.400;2023-04-27T12:02:38;4.63;;;2.60;;
51312;SDS011;37397;53.226;10.400;2023-04-27T12:05:05;5.22;;;2.45;;
51312;SDS011;37397;53.226;10.400;2023-04-27T12:07:34;5.45;;;2.80;;
51312;SDS011;37397;53.226;10.400;2023-04-27T12:10:01;8.70;;;2.88;;
51312;SDS011;37397;53.226;10.400;2023-04-27T12:12:27;5.60;;;2.60;;
51312;SDS011;37397;53.226;10.400;2023-04-27T12:14:53;4.38;;;2.58;;
51312;SDS011;37397;53.226;10.400;2023-04-27T12:17:20;7.15;;;2.60;;
51312;SDS011;37397;53.226;10.400;2023-04-27T12:19:46;5.93;;;2.70;;
51312;SDS011;37397;53.226;10.400;2023-04-27T12:22:13;5.00;;;2.63;;
51312;SDS011;37397;53.226;10.400;2023-04-27T12:24:39;4.55;;;2.45;;
51312;SDS011;37397;53.226;10.400;2023-04-27T12:27:06;6.63;;;2.80;;
51312;SDS011;37397;53.226;10.400;2023-04-27T12:29:33;5.57;;;3.00;;
51312;SDS011;37397;53.226;10.400;2023-04-27T12:32:00;6.68;;;3.03;;
51312;SDS011;37397;53.226;10.400;2023-04-27T12:34:26;5.70;;;2.97;;
51312;SDS011;37397;53.226;10.400;2023-04-27T12:36:55;4.15;;;2.42;;
51312;SDS011;37397;53.226;10.400;2023-04-27T12:39:22;7.00;;;3.08;;
51312;SDS011;37397;53.226;10.400;2023-04-27T12:41:50;5.68;;;2.58;;
51312;SDS011;37397;53.226;10.400;2023-04-27T12:44:19;6.85;;;2.70;;
51312;SDS011;37397;53.226;10.400;2023-04-27T12:46:46;6.80;;;2.50;;
51312;SDS011;37397;53.226;10.400;2023-04-27T12:49:14;8.18;;;3.17;;
51312;SDS011;37397;53.226;10.400;2023-04-27T12:51:41;6.18;;;2.45;;
51312;SDS011;37397;53.226;10.400;2023-04-27T12:54:08;7.72;;;3.20;;
51312;SDS011;37397;53.226;10.400;2023-04-27T12:56:36;4.28;;;2.80;;
51312;SDS011;37397;53.226;10.400;2023-04-27T12:59:02;7.47;;;2.88;;
51312;SDS011;37397;53.226;10.400;2023-04-27T13:01:31;6.57;;;3.00;;
51312;SDS011;37397;53.226;10.400;2023-04-27T13:03:58;7.15;;;2.80;;
51312;SDS011;37397;53.226;10.400;2023-04-27T13:06:27;7.50;;;3.13;;
51312;SDS011;37397;53.226;10.400;2023-04-27T13:08:54;6.53;;;2.40;;
51312;SDS011;37397;53.226;10.400;2023-04-27T13:11:22;7.15;;;2.88;;
51312;SDS011;37397;53.226;10.400;2023-04-27T13:13:49;5.03;;;3.03;;
51312;SDS011;37397;53.226;10.400;2023-04-27T13:16:16;4.72;;;2.42;;
51312;SDS011;37397;53.226;10.400;2023-04-27T13:18:44;4.70;;;2.65;;
51312;SDS011;37397;53.226;10.400;2023-04-27T13:21:15;6.03;;;2.92;;
51312;SDS011;37397;53.226;10.400;2023-04-27T13:23:41;7.20;;;2.65;;
51312;SDS011;37397;53.226;10.400;2023-04-27T13:26:08;7.20;;;2.92;;
51312;SDS011;37397;53.226;10.400;2023-04-27T13:28:35;4.47;;;2.55;;
51312;SDS011;37397;53.226;10.400;2023-04-27T13:31:01;4.45;;;2.83;;
51312;SDS011;37397;53.226;10.400;2023-04-27T13:33:29;6.50;;;2.80;;
51312;SDS011;37397;53.226;10.400;2023-04-27T13:35:57;7.00;;;2.95;;
51312;SDS011;37397;53.226;10.400;2023-04-27T13:38:27;6.88;;;3.22;;
51312;SDS011;37397;53.226;10.400;2023-04-27T13:40:54;7.05;;;2.95;;
51312;SDS011;37397;53.226;10.400;2023-04-27T13:43:20;6.32;;;3.13;;
51312;SDS011;37397;53.226;10.400;2023-04-27T13:45:47;8.35;;;3.03;;
51312;SDS011;37397;53.226;10.400;2023-04-27T13:48:15;6.97;;;2.97;;
51312;SDS011;37397;53.226;10.400;2023-04-27T13:50:41;5.22;;;2.83;;
51312;SDS011;37397;53.226;10.400;2023-04-27T13:53:08;7.15;;;2.83;;
51312;SDS011;37397;53.226;10.400;2023-04-27T13:55:34;6.22;;;2.90;;
51312;SDS011;37397;53.226;10.400;2023-04-27T13:58:01;9.50;;;3.08;;
51312;SDS011;37397;53.226;10.400;2023-04-27T14:00:28;6.38;;;2.72;;
51312;SDS011;37397;53.226;10.400;2023-04-27T14:02:59;6.00;;;3.00;;
51312;SDS011;37397;53.226;10.400;2023-04-27T14:05:26;5.47;;;2.60;;
51312;SDS011;37397;53.226;10.400;2023-04-27T14:07:53;6.47;;;3.10;;
51312;SDS011;37397;53.226;10.400;2023-04-27T14:10:19;7.03;;;3.50;;
51312;SDS011;37397;53.226;10.400;2023-04-27T14:12:46;4.30;;;2.83;;
51312;SDS011;37397;53.226;10.400;2023-04-27T14:15:12;6.80;;;2.88;;
51312;SDS011;37397;53.226;10.400;2023-04-27T14:17:39;7.47;;;3.17;;
51312;SDS011;37397;53.226;10.400;2023-04-27T14:20:06;10.60;;;3.42;;
51312;SDS011;37397;53.226;10.400;2023-04-27T14:22:33;5.35;;;3.03;;
51312;SDS011;37397;53.226;10.400;2023-04-27T14:25:01;5.40;;;3.15;;
51312;SDS011;37397;53.226;10.400;2023-04-27T14:27:28;7.60;;;3.20;;
51312;SDS011;37397;53.226;10.400;2023-04-27T14:29:54;6.85;;;2.80;;
51312;SDS011;37397;53.226;10.400;2023-04-27T14:32:21;5.10;;;2.80;;
51312;SDS011;37397;53.226;10.400;2023-04-27T14:34:48;5.22;;;2.67;;
51312;SDS011;37397;53.226;10.400;2023-04-27T14:37:15;5.40;;;2.70;;
51312;SDS011;37397;53.226;10.400;2023-04-27T14:39:41;7.18;;;2.70;;
51312;SDS011;37397;53.226;10.400;2023-04-27T14:42:10;5.88;;;2.80;;
51312;SDS011;37397;53.226;10.400;2023-04-27T14:44:37;5.63;;;3.17;;